Latest Weather Observations for Mangrove Mountain

IDN60901

Issued at 9:51 pm EDT Sunday 16 December 2018 (issued every 10 minutes, with the page automatically refreshed every 10 minutes)

About weather observations | Map of Sydney area stations | Latest observations for Sydney area | Other Formats
Station Details ID: 061375 Name: MANGROVE MOUNTAIN AWS Lat: -33.29 Lon: 151.21 Height: 305.0 m
Data from the previous 72 hours. | See also: Recent months at Mangrove Mountain
Date/Time
EDT
Temp
°C
App
Temp
°C
Dew
Point
°C
Rel
Hum
%
Delta-T
°C
Wind Press
QNH
hPa
Press
MSL
hPa
Rain since
9am
mm
Dir  Spd
km/h
Gust
km/h
Spd
kts
Gust
kts
16/09:30pm 22.4 22.8 17.3 73 3.2 N 11 19 6 10 - - 0.2
16/09:00pm 22.6 23.0 17.3 72 3.3 NNE 11 24 6 13 - - 0.2
16/08:30pm 22.8 22.9 17.5 72 3.3 NNE 13 26 7 14 - - 0.2
16/08:00pm 23.1 23.5 18.2 74 3.1 NNE 13 24 7 13 - - 0.2
16/07:30pm 23.6 24.0 18.9 75 3.0 NE 15 24 8 13 - - 0.2
16/07:00pm 24.5 25.3 19.8 75 3.1 NE 15 26 8 14 - - 0.2
16/06:30pm 24.8 25.3 20.1 75 3.1 NE 17 33 9 18 - - 0.2
16/06:00pm 24.8 24.6 19.8 74 3.3 NE 20 35 11 19 - - 0.2
16/05:30pm 24.9 23.4 19.5 72 3.5 NE 26 46 14 25 - - 0.2
16/05:00pm 24.0 22.5 17.7 68 4.0 ENE 22 37 12 20 - - 0.2
16/04:30pm 23.4 21.1 18.5 74 3.1 ENE 28 54 15 29 - - 0.2
16/04:15pm 24.8 22.7 19.0 70 3.7 ENE 28 54 15 29 - - 0.2
16/04:00pm 26.6 25.9 21.1 72 3.7 ENE 26 41 14 22 - - 0.2
16/03:30pm 28.9 29.9 21.1 62 5.3 ENE 17 28 9 15 - - 0.2
16/03:00pm 29.4 31.4 20.8 60 5.8 ENE 11 24 6 13 - - 0.2
16/02:30pm 29.6 30.6 21.0 60 5.8 E 17 28 9 15 - - 0.2
16/02:00pm 30.1 31.0 19.2 52 7.2 NE 13 24 7 13 - - 0.2
16/01:30pm 28.9 29.0 19.2 55 6.4 NE 17 24 9 13 - - 0.2
16/01:00pm 28.1 29.6 18.8 57 6.0 NE 9 20 5 11 - - 0.2
16/12:30pm 28.7 30.0 20.2 60 5.6 NE 13 20 7 11 - - 0.2
16/12:00pm 28.9 31.3 20.9 62 5.4 NE 9 17 5 9 - - 0.2
16/11:30am 28.7 29.4 18.8 55 6.5 N 13 22 7 12 - - 0.2
16/11:00am 28.3 31.1 20.8 63 5.0 NNE 7 17 4 9 - - 0.2
16/10:30am 28.1 30.7 20.4 63 5.1 N 7 13 4 7 - - 0.2
16/10:00am 26.5 29.0 20.3 68 4.1 NNW 7 15 4 8 - - 0.2
16/09:30am 25.6 27.3 20.2 72 3.6 NW 11 22 6 12 - - 0.2
16/09:00am 24.6 26.2 19.9 75 3.1 NNW 11 22 6 12 - - 23.0
16/08:30am 23.8 26.3 20.3 81 2.3 NNW 7 15 4 8 - - 23.0
16/08:00am 22.6 25.3 20.7 89 1.2 NNW 7 15 4 8 - - 23.0
16/07:30am 21.4 24.3 21.1 98 0.2 N 7 13 4 7 - - 23.0
16/07:00am 20.0 22.6 20.0 100 0.0 NW 6 11 3 6 - - 23.0
16/06:30am 19.3 22.3 19.3 100 0.0 NNW 2 6 1 3 - - 23.0
16/06:00am 19.3 21.9 19.3 100 0.0 NW 4 6 2 3 - - 23.0
16/05:30am 19.4 21.7 19.4 100 0.0 NW 6 7 3 4 - - 23.0
16/05:00am 19.6 22.4 19.6 100 0.0 NNW 4 6 2 3 - - 23.0
16/04:30am 19.3 22.7 19.3 100 0.0 CALM 0 0 0 0 - - 23.0
16/04:00am 19.3 22.3 19.3 100 0.0 NW 2 4 1 2 - - 23.0
16/03:30am 19.5 21.8 19.5 100 0.0 NW 6 7 3 4 - - 23.0
16/03:00am 19.6 22.7 19.6 100 0.0 WNW 2 6 1 3 - - 23.0
16/02:30am 19.7 23.3 19.7 100 0.0 CALM 0 0 0 0 - - 23.0
16/02:00am 20.5 23.3 20.5 100 0.0 NE 6 7 3 4 - - 23.0
16/01:30am 20.5 23.3 20.5 100 0.0 NNE 6 9 3 5 - - 23.0
16/01:00am 20.4 23.6 20.4 100 0.0 ENE 4 7 2 4 - - 23.0
16/12:30am 20.7 23.6 20.7 100 0.0 NW 6 9 3 5 - - 23.0
16/12:00am 21.0 22.4 21.0 100 0.0 NE 15 24 8 13 - - 23.0
 
Date/Time
EDT
Temp
°C
App
Temp
°C
Dew
Point
°C
Rel
Hum
%
Delta-T
°C
Wind Press
QNH
hPa
Press
MSL
hPa
Rain since
9am
mm
Dir  Spd
km/h
Gust
km/h
Spd
kts
Gust
kts
15/11:30pm 20.9 21.8 20.9 100 0.0 NE 17 24 9 13 - - 23.0
15/11:00pm 20.9 22.2 20.9 100 0.0 NE 15 30 8 16 - - 23.0
15/10:30pm 20.7 22.7 20.7 100 0.0 ENE 11 20 6 11 - - 23.0
15/10:00pm 20.5 21.7 20.0 97 0.3 ENE 13 20 7 11 - - 23.0
15/09:30pm 20.6 22.2 19.1 91 1.0 ENE 9 15 5 8 - - 23.0
15/09:00pm 21.0 22.4 19.5 91 1.0 NE 11 17 6 9 - - 23.0
15/08:30pm 20.2 21.7 19.0 93 0.8 ENE 9 15 5 8 - - 23.0
15/08:00pm 19.9 22.0 19.4 97 0.3 NE 7 17 4 9 - - 23.0
15/07:30pm 19.9 21.4 18.9 94 0.6 NE 9 22 5 12 - - 23.0
15/07:12pm 20.2 19.7 19.0 93 0.8 NE 20 50 11 27 - - 22.8
15/07:10pm 20.1 19.9 19.3 95 0.5 NE 19 50 10 27 - - 22.8
15/07:00pm 21.2 23.2 20.7 97 0.3 ENE 11 17 6 9 - - 17.0
15/06:30pm 21.1 23.5 19.6 91 1.0 ESE 6 11 3 6 - - 16.8
15/06:00pm 21.4 23.6 19.5 89 1.2 NE 7 15 4 8 - - 16.8
15/05:30pm 20.7 24.0 20.7 100 0.0 NE 4 11 2 6 - - 16.8
15/05:00pm 17.8 18.9 17.2 96 0.4 SSW 7 13 4 7 - - 16.4
15/04:35pm 21.0 19.8 18.4 85 1.6 NE 22 50 12 27 - - 4.0
15/04:30pm 23.7 25.4 21.0 85 1.8 E 13 26 7 14 - - 2.0
15/04:00pm 26.1 28.3 21.1 74 3.3 E 11 17 6 9 - - 0.0
15/03:30pm 25.7 27.2 20.5 73 3.4 E 13 22 7 12 - - 0.0
15/03:00pm 28.6 31.0 20.9 63 5.2 ENE 9 15 5 8 - - 0.0
15/02:30pm 28.9 31.1 19.5 57 6.2 NE 7 17 4 9 - - 0.0
15/02:00pm 29.4 31.0 18.2 51 7.3 NNW 7 17 4 9 - - 0.0
15/01:30pm 29.6 30.1 18.4 51 7.3 NNW 13 22 7 12 - - 0.0
15/01:00pm 27.6 30.0 20.9 67 4.5 NNE 9 17 5 9 - - 0.0
15/12:30pm 27.8 29.4 19.1 59 5.7 N 9 19 5 10 - - 0.0
15/12:00pm 27.4 29.7 21.4 70 4.0 NNE 11 17 6 9 - - 0.0
15/11:30am 26.7 28.6 19.8 66 4.5 N 9 19 5 10 - - 0.0
15/11:00am 26.6 30.1 21.8 75 3.2 NNE 6 11 3 6 - - 0.0
15/10:30am 25.4 28.4 21.3 78 2.7 ENE 7 15 4 8 - - 0.0
15/10:00am 25.8 29.5 21.5 77 2.9 NNE 4 6 2 3 - - 0.0
15/09:30am 24.2 28.1 21.1 83 2.1 NE 2 6 1 3 - - 0.0
15/09:00am 23.2 27.1 21.1 88 1.4 ENE 2 6 1 3 - - 32.6
15/08:30am 21.6 24.8 20.6 94 0.7 N 4 7 2 4 - - 32.6
15/08:00am 21.6 25.0 21.6 100 0.0 NE 6 9 3 5 - - 32.6
15/07:30am 20.7 24.0 20.7 100 0.0 N 4 7 2 4 - - 32.6
15/07:00am 20.1 23.1 20.1 100 0.0 NNE 4 7 2 4 - - 32.6
15/06:30am 19.9 23.6 19.9 100 0.0 CALM 0 0 0 0 - - 32.6
15/06:00am 19.7 23.3 19.7 100 0.0 CALM 0 0 0 0 - - 32.6
15/05:30am 19.5 22.6 19.5 100 0.0 E 2 4 1 2 - - 32.6
15/05:00am 19.4 22.8 19.4 100 0.0 CALM 0 0 0 0 - - 32.6
15/04:30am 19.8 22.3 19.8 100 0.0 E 6 6 3 3 - - 32.6
15/04:00am 19.8 23.4 19.8 100 0.0 CALM 0 0 0 0 - - 32.6
15/03:30am 20.0 23.7 20.0 100 0.0 CALM 0 2 0 1 - - 32.6
15/03:00am 20.2 24.0 20.2 100 0.0 CALM 0 2 0 1 - - 32.6
15/02:30am 20.3 24.2 20.3 100 0.0 CALM 0 2 0 1 - - 32.6
15/02:00am 20.2 24.0 20.2 100 0.0 CALM 0 0 0 0 - - 32.6
15/01:30am 20.3 24.2 20.3 100 0.0 CALM 0 0 0 0 - - 32.6
15/01:00am 20.2 24.0 20.2 100 0.0 CALM 0 0 0 0 - - 32.6
15/12:30am 20.1 23.5 20.1 100 0.0 E 2 4 1 2 - - 32.6
15/12:00am 19.9 22.4 19.9 100 0.0 SSE 6 11 3 6 - - 32.6
 
Date/Time
EDT
Temp
°C
App
Temp
°C
Dew
Point
°C
Rel
Hum
%
Delta-T
°C
Wind Press
QNH
hPa
Press
MSL
hPa
Rain since
9am
mm
Dir  Spd
km/h
Gust
km/h
Spd
kts
Gust
kts
14/11:30pm 20.0 23.7 20.0 100 0.0 CALM 0 2 0 1 - - 32.6
14/11:00pm 20.1 23.9 20.1 100 0.0 CALM 0 0 0 0 - - 32.6
14/10:30pm 20.1 23.9 20.1 100 0.0 CALM 0 4 0 2 - - 32.6
14/10:00pm 20.2 24.0 20.2 100 0.0 CALM 0 0 0 0 - - 32.6
14/09:30pm 20.1 23.9 20.1 100 0.0 CALM 0 0 0 0 - - 32.6
14/09:00pm 20.4 23.9 20.4 100 0.0 ESE 2 4 1 2 - - 32.6
14/08:30pm 20.2 22.9 20.2 100 0.0 ESE 6 9 3 5 - - 32.6
14/08:00pm 20.1 23.1 20.1 100 0.0 SE 4 7 2 4 - - 32.6
14/07:30pm 20.1 22.5 20.1 100 0.0 SSE 7 9 4 5 - - 32.6
14/07:00pm 20.3 23.0 20.3 100 0.0 SSE 6 11 3 6 - - 32.6
14/06:30pm 20.4 22.6 20.4 100 0.0 SE 9 19 5 10 - - 32.6
14/06:00pm 20.2 21.9 20.2 100 0.0 SE 11 19 6 10 - - 32.6
14/05:30pm 19.9 21.9 19.9 100 0.0 SSE 9 15 5 8 - - 32.6
14/05:00pm 19.6 22.0 19.6 100 0.0 SW 6 11 3 6 - - 32.4
14/04:30pm 19.2 21.8 19.2 100 0.0 S 4 6 2 3 - - 29.4
14/04:00pm 19.5 23.0 19.5 100 0.0 CALM 0 4 0 2 - - 23.8
14/03:30pm 19.6 22.7 19.6 100 0.0 WSW 2 7 1 4 - - 22.6
14/03:00pm 19.3 19.2 17.8 91 0.9 S 15 35 8 19 - - 16.2
14/02:30pm 21.9 24.4 19.8 88 1.4 SSW 6 9 3 5 - - 0.0
14/02:00pm 23.3 26.5 20.4 84 1.9 SSW 4 9 2 5 - - 0.0
14/01:30pm 24.1 27.2 21.0 83 2.1 S 6 13 3 7 - - 0.0
14/01:00pm 24.4 27.0 20.1 77 2.8 SSE 6 9 3 5 - - 0.0
14/12:30pm 24.5 27.1 20.0 76 2.9 NW 6 11 3 6 - - 0.0
14/12:00pm 22.0 23.0 18.6 81 2.2 W 11 17 6 9 - - 0.0
14/11:30am 25.0 28.4 20.9 78 2.7 ESE 4 9 2 5 - - 0.0
14/11:00am 21.4 25.2 20.2 93 0.8 CALM 0 0 0 0 - - 0.0
14/10:30am 20.9 23.6 19.4 91 1.0 ENE 4 7 2 4 - - 0.0
14/10:00am 21.0 23.6 20.0 94 0.6 E 6 7 3 4 - - 0.0
14/09:30am 20.7 23.8 19.4 92 0.8 ENE 2 4 1 2 - - 0.0
14/09:00am 21.0 23.1 19.3 90 1.1 E 7 11 4 6 - - 0.4
14/08:30am 21.5 23.8 19.8 90 1.1 E 7 11 4 6 - - 0.4
14/08:00am 20.0 23.0 20.0 100 0.0 E 4 7 2 4 - - 0.4
14/07:30am 19.0 20.9 19.0 100 0.0 E 7 9 4 5 - - 0.4
14/07:00am 18.9 21.7 18.9 100 0.0 SSW 2 2 1 1 - - 0.4
14/06:30am 18.7 21.4 18.7 100 0.0 SSW 2 4 1 2 - - 0.4
14/06:00am 18.6 21.7 18.6 100 0.0 CALM 0 4 0 2 - - 0.4
14/05:30am 18.6 20.9 18.6 100 0.0 NW 4 6 2 3 - - 0.4
14/05:00am 18.6 21.3 18.6 100 0.0 W 2 6 1 3 - - 0.4
14/04:30am 18.6 21.3 18.6 100 0.0 S 2 4 1 2 - - 0.4
14/04:00am 18.6 20.9 18.6 100 0.0 WSW 4 7 2 4 - - 0.4
14/03:30am 18.5 20.8 18.5 100 0.0 S 4 6 2 3 - - 0.4
14/03:00am 18.5 21.1 18.5 100 0.0 S 2 6 1 3 - - 0.4
14/02:30am 18.5 21.1 18.5 100 0.0 SSW 2 4 1 2 - - 0.4
14/02:00am 18.6 20.8 18.3 98 0.2 S 4 6 2 3 - - 0.4
14/01:30am 18.8 21.1 18.5 98 0.2 S 4 6 2 3 - - 0.4
14/01:00am 19.1 21.5 17.9 93 0.7 SSE 2 6 1 3 - - 0.4
14/12:30am 19.8 20.9 18.1 90 1.1 E 9 15 5 8 - - 0.4
14/12:00am 20.2 22.2 17.8 86 1.5 NNE 4 7 2 4 - - 0.4
 
Date/Time
EDT
Temp
°C
App
Temp
°C
Dew
Point
°C
Rel
Hum
%
Delta-T
°C
Wind Press
QNH
hPa
Press
MSL
hPa
Rain since
9am
mm
Dir  Spd
km/h
Gust
km/h
Spd
kts
Gust
kts
13/11:30pm 19.5 21.0 17.6 89 1.2 E 6 11 3 6 - - 0.4
13/11:00pm 20.7 22.4 16.3 76 2.7 W 2 6 1 3 - - 0.4
13/10:30pm 21.6 23.0 16.3 72 3.2 WNW 4 7 2 4 - - 0.4
13/10:00pm 22.0 23.1 16.7 72 3.3 NW 6 11 3 6 - - 0.4

Latest Capital City Observations: Canberra | Sydney | Melbourne | Brisbane | Adelaide | Perth | Hobart | Darwin

Other Formats:

Comma delimited format used in spreadsheet applications
http://www.bom.gov.au/fwo/IDN60901/IDN60901.95774.axf

JavaScript Object Notation format (JSON) in row-major order
http://www.bom.gov.au/fwo/IDN60901/IDN60901.95774.json